Terminal Aerodrome Forecast
Issued by NWS Twin Cities, MN

Home | Current Version | Previous Version | Text Only | Print | Product List | Glossary Off
Versions: 1 2 3 4 5 6 7 8 9 10 11 12 13 14 15 16 17

895
FTUS43 KMPX 310953 AAB
TAFEAU
TAF AMD
KEAU 310953Z 3110/0106 00000KT 5SM BR SKC
      TEMPO 3110/3112 2SM BR VV007
     FM311200 35005KT P6SM SKC=

USA.gov is the U.S. government's official web portal to all federal, state and local government web resources and services.